| time (UTC) | temp F | wind direction | speed MPH | gust MPH | rain 1hr in | rain 24hr in | rain mn in | humidity % | barometer mb |
| 20260906213336 | 92 | 129 | 2.0 | 11.0 | 0.00 | 0.00 | 0.00 | 30 | 1016.3 |
| 20260906212833 | 94 | 188 | 2.0 | 9.0 | 0.00 | 0.00 | 0.00 | 28 | 1016.1 |
| 20260906212328 | 92 | 180 | 3.0 | 5.0 | 0.00 | 0.00 | 0.00 | 30 | 1016.2 |
| 20260906211828 | 89 | 90 | 4.0 | 10.0 | 0.00 | 0.00 | 0.00 | 32 | 1016.1 |
| 20260906211323 | 88 | 88 | 5.0 | 7.0 | 0.00 | 0.00 | 0.00 | 35 | 1016.4 |
| 20260906210818 | 88 | 40 | 3.0 | 7.0 | 0.00 | 0.00 | 0.00 | 34 | 1016.5 |
| 20260906210318 | 89 | 75 | 3.0 | 8.0 | 0.00 | 0.00 | 0.00 | 33 | 1016.3 |
| 20260906205814 | 91 | 132 | 6.0 | 13.0 | 0.00 | 0.00 | 0.00 | 32 | 1016.3 |
| 20260906205310 | 91 | 60 | 1.0 | 7.0 | 0.00 | 0.00 | 0.00 | 31 | 1016.7 |
| 20260906204806 | 91 | 46 | 5.0 | 11.0 | 0.00 | 0.00 | 0.00 | 31 | 1016.7 |
| 20260906204304 | 89 | 13 | 7.0 | 12.0 | 0.00 | 0.00 | 0.00 | 32 | 1016.9 |
| 20260906203804 | 89 | 60 | 2.0 | 7.0 | 0.00 | 0.00 | 0.00 | 32 | 1016.9 |
| 20260906203300 | 91 | 154 | 1.0 | 7.0 | 0.00 | 0.00 | 0.00 | 31 | 1017.1 |
| 20260906202756 | 90 | 128 | 3.0 | 5.0 | 0.00 | 0.00 | 0.00 | 32 | 1016.8 |
| 20260906202256 | 91 | 226 | 5.0 | 6.0 | 0.00 | 0.00 | 0.00 | 31 | 1016.8 |
| 20260906201750 | 89 | 176 | 2.0 | 8.0 | 0.00 | 0.00 | 0.00 | 33 | 1017.3 |
| 20260906201250 | 87 | 16 | 5.0 | 9.0 | 0.00 | 0.00 | 0.00 | 34 | 1017.3 |
| 20260906200746 | 87 | 38 | 5.0 | 10.0 | 0.00 | 0.00 | 0.00 | 35 | 1017.3 |
| 20260906200241 | 88 | 70 | 5.0 | 6.0 | 0.00 | 0.00 | 0.00 | 34 | 1017.4 |
| 20260906195737 | 87 | 254 | 5.0 | 8.0 | 0.00 | 0.00 | 0.00 | 35 | 1017.4 |
| 20260906195233 | 88 | 40 | 9.0 | 11.0 | 0.00 | 0.00 | 0.00 | 34 | 1017.6 |
| 20260906194729 | 87 | 266 | 3.0 | 6.0 | 0.00 | 0.00 | 0.00 | 35 | 1017.6 |
| 20260906194224 | 87 | 60 | 7.0 | 9.0 | 0.00 | 0.00 | 0.00 | 34 | 1017.7 |
| 20260906193719 | 86 | 37 | 3.0 | 10.0 | 0.00 | 0.00 | 0.00 | 36 | 1017.7 |
| 20260906193214 | 86 | 128 | 4.0 | 5.0 | 0.00 | 0.00 | 0.00 | 36 | 1017.8 |
| 20260906192710 | 87 | 128 | 5.0 | 6.0 | 0.00 | 0.00 | 0.00 | 34 | 1018.1 |
| 20260906192209 | 86 | 157 | 5.0 | 9.0 | 0.00 | 0.00 | 0.00 | 35 | 1018.2 |
| 20260906191704 | 85 | 332 | 3.0 | 8.0 | 0.00 | 0.00 | 0.00 | 38 | 1018.0 |
| 20260906191203 | 84 | 354 | 5.0 | 5.0 | 0.00 | 0.00 | 0.00 | 37 | 1018.0 |
| 20260906190658 | 85 | 65 | 7.0 | 11.0 | 0.00 | 0.00 | 0.00 | 36 | 1018.2 |
| 20260906190153 | 85 | 149 | 5.0 | 5.0 | 0.00 | 0.00 | 0.00 | 37 | 1018.4 |
| 20260906185652 | 84 | 31 | 4.0 | 9.0 | 0.00 | 0.00 | 0.00 | 39 | 1018.4 |
| 20260906185151 | 84 | 55 | 3.0 | 10.0 | 0.00 | 0.00 | 0.00 | 39 | 1018.7 |
| 20260906184645 | 84 | 232 | 4.0 | 5.0 | 0.00 | 0.00 | 0.00 | 37 | 1018.8 |
| 20260906184142 | 85 | 115 | 4.0 | 4.0 | 0.00 | 0.00 | 0.00 | 36 | 1018.8 |
| 20260906183637 | 84 | 82 | 3.0 | 5.0 | 0.00 | 0.00 | 0.00 | 36 | 1018.9 |
| 20260906183133 | 83 | 203 | 1.0 | 8.0 | 0.00 | 0.00 | 0.00 | 38 | 1018.9 |
| 20260906182632 | 84 | 128 | 3.0 | 6.0 | 0.00 | 0.00 | 0.00 | 39 | 1019.0 |
| 20260906182129 | 84 | 353 | 2.0 | 4.0 | 0.00 | 0.00 | 0.00 | 40 | 1019.1 |
| 20260906181624 | 84 | 0 | 1.0 | 3.0 | 0.00 | 0.00 | 0.00 | 41 | 1019.3 |
| 20260906181120 | 82 | 93 | 4.0 | 6.0 | 0.00 | 0.00 | 0.00 | 41 | 1019.5 |
| 20260906180615 | 82 | 19 | 3.0 | 6.0 | 0.00 | 0.00 | 0.00 | 44 | 1019.6 |
| 20260906180114 | 83 | 71 | 2.0 | 4.0 | 0.00 | 0.00 | 0.00 | 44 | 1019.7 |
| 20260906175613 | 81 | 172 | 1.0 | 3.0 | 0.00 | 0.00 | 0.00 | 44 | 1019.7 |
| 20260906175108 | 79 | 229 | 3.0 | 5.0 | 0.00 | 0.00 | 0.00 | 45 | 1020.0 |
| 20260906174606 | 81 | 236 | 3.0 | 4.0 | 0.00 | 0.00 | 0.00 | 44 | 1019.8 |
| 20260906174101 | 80 | 247 | 2.0 | 4.0 | 0.00 | 0.00 | 0.00 | 46 | 1020.1 |
| 20260906173556 | 80 | 8 | 3.0 | 4.0 | 0.00 | 0.00 | 0.00 | 47 | 1020.2 |
| 20260906173052 | 80 | 345 | 2.0 | 3.0 | 0.00 | 0.00 | 0.00 | 49 | 1020.1 |
| 20260906172546 | 79 | 15 | 2.0 | 5.0 | 0.00 | 0.00 | 0.00 | 49 | 1020.3 |
| 20260906172042 | 78 | 222 | 3.0 | 7.0 | 0.00 | 0.00 | 0.00 | 50 | 1020.4 |
| 20260906171542 | 78 | 268 | 5.0 | 5.0 | 0.00 | 0.00 | 0.00 | 50 | 1020.2 |
| 20260906171037 | 78 | 237 | 2.0 | 3.0 | 0.00 | 0.00 | 0.00 | 50 | 1020.7 |
| 20260906170533 | 78 | 15 | 2.0 | 5.0 | 0.00 | 0.00 | 0.00 | 52 | 1020.4 |
| 20260906170032 | 77 | 312 | 4.0 | 4.0 | 0.00 | 0.00 | 0.00 | 52 | 1020.7 |
| 20260906165529 | 77 | 238 | 3.0 | 7.0 | 0.00 | 0.00 | 0.00 | 53 | 1020.8 |
| 20260906165024 | 76 | 276 | 3.0 | 5.0 | 0.00 | 0.00 | 0.00 | 55 | 1020.9 |
| 20260906164523 | 76 | 210 | 3.0 | 6.0 | 0.00 | 0.00 | 0.00 | 56 | 1020.9 |
| 20260906164019 | 77 | 336 | 2.0 | 4.0 | 0.00 | 0.00 | 0.00 | 56 | 1020.9 |
| 20260906163514 | 76 | 346 | 0.0 | 4.0 | 0.00 | 0.00 | 0.00 | 57 | 1020.8 |
| 20260906163009 | 75 | 0 | 2.0 | 5.0 | 0.00 | 0.00 | 0.00 | 59 | 1020.8 |
| 20260906162506 | 75 | 286 | 4.0 | 5.0 | 0.00 | 0.00 | 0.00 | 60 | 1020.8 |
| 20260906162001 | 74 | 261 | 6.0 | 8.0 | 0.00 | 0.00 | 0.00 | 60 | 1020.8 |
| 20260906161456 | 73 | 259 | 5.0 | 5.0 | 0.00 | 0.00 | 0.00 | 62 | 1020.7 |
| 20260906160955 | 74 | 290 | 2.0 | 4.0 | 0.00 | 0.00 | 0.00 | 61 | 1020.9 |
| 20260906160454 | 74 | 41 | 2.0 | 3.0 | 0.00 | 0.00 | 0.00 | 61 | 1020.7 |
| 20260906155952 | 73 | 234 | 1.0 | 6.0 | 0.00 | 0.00 | 0.00 | 62 | 1020.8 |
| 20260906155451 | 73 | 244 | 4.0 | 5.0 | 0.00 | 0.00 | 0.00 | 63 | 1020.7 |
| 20260906154947 | 73 | 332 | 5.0 | 5.0 | 0.00 | 0.00 | 0.00 | 64 | 1020.8 |
| 20260906154443 | 72 | 258 | 4.0 | 5.0 | 0.00 | 0.00 | 0.00 | 65 | 1020.8 |
| 20260906153941 | 72 | 251 | 4.0 | 10.0 | 0.00 | 0.00 | 0.00 | 65 | 1020.7 |
| 20260906153440 | 73 | 311 | 2.0 | 4.0 | 0.00 | 0.00 | 0.00 | 64 | 1021.0 |
| 20260906152936 | 72 | 262 | 0.0 | 2.0 | 0.00 | 0.00 | 0.00 | 67 | 1021.0 |
| 20260906152435 | 71 | 299 | 2.0 | 6.0 | 0.00 | 0.00 | 0.00 | 68 | 1021.0 |
| 20260906151934 | 70 | 313 | 3.0 | 5.0 | 0.00 | 0.00 | 0.00 | 69 | 1020.9 |
| 20260906151430 | 70 | 267 | 4.0 | 7.0 | 0.00 | 0.00 | 0.00 | 71 | 1021.0 |
| 20260906150926 | 70 | 276 | 3.0 | 4.0 | 0.00 | 0.00 | 0.00 | 70 | 1021.1 |
| 20260906150420 | 69 | 259 | 3.0 | 6.0 | 0.00 | 0.00 | 0.00 | 72 | 1021.0 |
| 20260906145920 | 69 | 260 | 5.0 | 5.0 | 0.00 | 0.00 | 0.00 | 72 | 1020.9 |
| 20260906145419 | 69 | 336 | 2.0 | 6.0 | 0.00 | 0.00 | 0.00 | 74 | 1020.9 |
| 20260906144914 | 68 | 270 | 3.0 | 4.0 | 0.00 | 0.00 | 0.00 | 74 | 1020.9 |
| 20260906144409 | 68 | 258 | 3.0 | 7.0 | 0.00 | 0.00 | 0.00 | 75 | 1020.8 |
| 20260906143904 | 68 | 283 | 4.0 | 9.0 | 0.00 | 0.00 | 0.00 | 76 | 1021.0 |
| 20260906143400 | 68 | 245 | 5.0 | 5.0 | 0.00 | 0.00 | 0.00 | 75 | 1020.8 |
| 20260906142856 | 68 | 250 | 4.0 | 8.0 | 0.00 | 0.00 | 0.00 | 75 | 1020.7 |
| 20260906142355 | 68 | 292 | 3.0 | 5.0 | 0.00 | 0.00 | 0.00 | 76 | 1020.8 |
| 20260906141851 | 67 | 340 | 1.0 | 5.0 | 0.00 | 0.00 | 0.00 | 78 | 1020.9 |
| 20260906141350 | 66 | 285 | 5.0 | 7.0 | 0.00 | 0.00 | 0.00 | 79 | 1020.7 |
| 20260906140850 | 66 | 265 | 7.0 | 9.0 | 0.00 | 0.00 | 0.00 | 80 | 1020.9 |
| 20260906140345 | 66 | 302 | 4.0 | 8.0 | 0.00 | 0.00 | 0.00 | 80 | 1021.0 |
| 20260906135842 | 65 | 283 | 3.0 | 4.0 | 0.00 | 0.00 | 0.00 | 81 | 1020.7 |
| 20260906135337 | 65 | 308 | 3.0 | 5.0 | 0.00 | 0.00 | 0.00 | 82 | 1020.7 |
| 20260906134832 | 65 | 270 | 4.0 | 7.0 | 0.00 | 0.00 | 0.00 | 82 | 1020.8 |
| 20260906134327 | 64 | 285 | 6.0 | 9.0 | 0.00 | 0.00 | 0.00 | 83 | 1020.5 |
| 20260906133823 | 64 | 290 | 2.0 | 7.0 | 0.00 | 0.00 | 0.00 | 83 | 1021.0 |
| 20260906133318 | 64 | 289 | 1.0 | 6.0 | 0.00 | 0.00 | 0.00 | 83 | 1020.7 |
| 20260906132814 | 64 | 246 | 4.0 | 5.0 | 0.00 | 0.00 | 0.00 | 83 | 1020.7 |
| 20260906132309 | 64 | 263 | 4.0 | 6.0 | 0.00 | 0.00 | 0.00 | 84 | 1020.9 |
| 20260906131804 | 63 | 267 | 3.0 | 6.0 | 0.00 | 0.00 | 0.00 | 85 | 1020.7 |
| 20260906131259 | 63 | 234 | 4.0 | 5.0 | 0.00 | 0.00 | 0.00 | 85 | 1020.5 |
| 20260906130755 | 62 | 247 | 3.0 | 4.0 | 0.00 | 0.00 | 0.00 | 85 | 1020.4 |
| 20260906130250 | 62 | 244 | 3.0 | 5.0 | 0.00 | 0.00 | 0.00 | 86 | 1020.3 |
| 20260906125749 | 62 | 218 | 3.0 | 3.0 | 0.00 | 0.00 | 0.00 | 86 | 1020.4 |
| 20260906125246 | 62 | 192 | 0.0 | 3.0 | 0.00 | 0.00 | 0.00 | 86 | 1020.3 |
| 20260906124741 | 62 | 29 | 0.0 | 1.0 | 0.00 | 0.00 | 0.00 | 86 | 1020.4 |
| 20260906124237 | 62 | 322 | 0.0 | 4.0 | 0.00 | 0.00 | 0.00 | 86 | 1020.3 |
| 20260906123735 | 62 | 263 | 3.0 | 4.0 | 0.00 | 0.00 | 0.00 | 86 | 1020.2 |
| 20260906123231 | 62 | 351 | 0.0 | 3.0 | 0.00 | 0.00 | 0.00 | 86 | 1020.1 |
| 20260906122731 | 62 | 328 | 3.0 | 5.0 | 0.00 | 0.00 | 0.00 | 86 | 1020.3 |
| 20260906122226 | 62 | 261 | 3.0 | 4.0 | 0.00 | 0.00 | 0.00 | 85 | 1020.3 |
| 20260906121722 | 62 | 252 | 2.0 | 4.0 | 0.00 | 0.00 | 0.00 | 86 | 1020.3 |
| 20260906121219 | 62 | 349 | 3.0 | 3.0 | 0.00 | 0.00 | 0.00 | 86 | 1020.3 |
| 20260906120714 | 62 | 8 | 0.0 | 3.0 | 0.00 | 0.00 | 0.00 | 85 | 1020.2 |
| 20260906120211 | 62 | 299 | 2.0 | 3.0 | 0.00 | 0.00 | 0.00 | 85 | 1020.3 |
| 20260906115706 | 62 | 299 | 4.0 | 4.0 | 0.00 | 0.00 | 0.00 | 84 | 1020.2 |
| 20260906115201 | 62 | 57 | 0.0 | 5.0 | 0.00 | 0.00 | 0.00 | 83 | 1019.8 |
| 20260906114700 | 62 | 311 | 0.0 | 7.0 | 0.00 | 0.00 | 0.00 | 81 | 1020.2 |
| 20260906114155 | 63 | 0 | 0.0 | 4.0 | 0.00 | 0.00 | 0.00 | 80 | 1020.2 |
| 20260906113655 | 63 | 294 | 1.0 | 4.0 | 0.00 | 0.00 | 0.00 | 79 | 1020.3 |
| 20260906113155 | 63 | 356 | 2.0 | 4.0 | 0.00 | 0.00 | 0.00 | 79 | 1020.0 |
| 20260906112654 | 63 | 266 | 3.0 | 3.0 | 0.00 | 0.00 | 0.00 | 79 | 1020.2 |
| 20260906112152 | 63 | 345 | 1.0 | 3.0 | 0.00 | 0.00 | 0.00 | 78 | 1020.1 |
| 20260906111651 | 63 | 194 | 0.0 | 2.0 | 0.00 | 0.00 | 0.00 | 78 | 1020.2 |
| 20260906111145 | 63 | 312 | 2.0 | 2.0 | 0.00 | 0.00 | 0.00 | 78 | 1020.3 |
| 20260906110641 | 63 | 11 | 0.0 | 3.0 | 0.00 | 0.00 | 0.00 | 77 | 1020.2 |
| 20260906110136 | 63 | 0 | 0.0 | 3.0 | 0.00 | 0.00 | 0.00 | 78 | 1020.0 |
| 20260906105630 | 63 | 330 | 2.0 | 3.0 | 0.00 | 0.00 | 0.00 | 77 | 1020.1 |
| 20260906105126 | 64 | 23 | 1.0 | 2.0 | 0.00 | 0.00 | 0.00 | 73 | 1019.8 |
| 20260906104626 | 64 | 0 | 0.0 | 3.0 | 0.00 | 0.00 | 0.00 | 70 | 1019.8 |
| 20260906104125 | 63 | 306 | 0.0 | 1.0 | 0.00 | 0.00 | 0.00 | 73 | 1019.8 |
| 20260906103623 | 64 | 0 | 0.0 | 3.0 | 0.00 | 0.00 | 0.00 | 72 | 1019.7 |
| 20260906103119 | 64 | 23 | 0.0 | 1.0 | 0.00 | 0.00 | 0.00 | 73 | 1019.8 |
| 20260906102614 | 64 | 187 | 1.0 | 2.0 | 0.00 | 0.00 | 0.00 | 73 | 1019.6 |
| 20260906102109 | 64 | 331 | 0.0 | 1.0 | 0.00 | 0.00 | 0.00 | 73 | 1019.8 |
| 20260906101608 | 64 | 11 | 2.0 | 2.0 | 0.00 | 0.00 | 0.00 | 73 | 1019.6 |
| 20260906101109 | 65 | 206 | 0.0 | 1.0 | 0.00 | 0.00 | 0.00 | 73 | 1019.4 |
| 20260906100604 | 65 | 254 | 0.0 | 3.0 | 0.00 | 0.00 | 0.00 | 72 | 1019.5 |
| 20260906100104 | 65 | 6 | 0.0 | 3.0 | 0.00 | 0.00 | 0.00 | 72 | 1019.6 |
| 20260906095604 | 66 | 313 | 3.0 | 5.0 | 0.00 | 0.00 | 0.00 | 70 | 1019.8 |
| 20260906095100 | 66 | 303 | 3.0 | 4.0 | 0.00 | 0.00 | 0.00 | 67 | 1019.6 |
| 20260906094558 | 66 | 270 | 0.0 | 2.0 | 0.00 | 0.00 | 0.00 | 68 | 1020.0 |
| 20260906094055 | 66 | 16 | 0.0 | 2.0 | 0.00 | 0.00 | 0.00 | 66 | 1019.8 |
| 20260906093550 | 67 | 354 | 0.0 | 1.0 | 0.00 | 0.00 | 0.00 | 66 | 1019.6 |
| 20260906093045 | 67 | 307 | 0.0 | 2.0 | 0.00 | 0.00 | 0.00 | 66 | 1019.8 |
| 20260906092540 | 66 | 165 | 0.0 | 0.0 | 0.00 | 0.00 | 0.00 | 67 | 1020.0 |
| 20260906092035 | 66 | 120 | 0.0 | 0.0 | 0.00 | 0.00 | 0.00 | 67 | 1019.7 |
| 20260906091531 | 66 | 276 | 0.0 | 2.0 | 0.00 | 0.00 | 0.00 | 66 | 1019.7 |
| 20260906091027 | 67 | 12 | 1.0 | 2.0 | 0.00 | 0.00 | 0.00 | 65 | 1019.5 |
| 20260906090522 | 67 | 26 | 2.0 | 3.0 | 0.00 | 0.00 | 0.00 | 63 | 1019.5 |
| 20260906090017 | 67 | 0 | 1.0 | 1.0 | 0.00 | 0.00 | 0.00 | 63 | 1019.1 |
| 20260906085515 | 68 | 60 | 0.0 | 1.0 | 0.00 | 0.00 | 0.00 | 62 | 1019.4 |
| 20260906085015 | 68 | 97 | 1.0 | 1.0 | 0.00 | 0.00 | 0.00 | 61 | 1019.4 |
| 20260906084510 | 68 | 82 | 0.0 | 1.0 | 0.00 | 0.00 | 0.00 | 60 | 1019.5 |
| 20260906084009 | 69 | 39 | 3.0 | 4.0 | 0.00 | 0.00 | 0.00 | 58 | 1019.5 |
| 20260906083505 | 69 | 32 | 3.0 | 3.0 | 0.00 | 0.00 | 0.00 | 56 | 1019.6 |
| 20260906083004 | 69 | 90 | 1.0 | 2.0 | 0.00 | 0.00 | 0.00 | 55 | 1019.5 |
| 20260906082459 | 70 | 75 | 0.0 | 2.0 | 0.00 | 0.00 | 0.00 | 54 | 1019.3 |
| 20260906081955 | 70 | 8 | 0.0 | 2.0 | 0.00 | 0.00 | 0.00 | 53 | 1019.6 |
| 20260906081450 | 71 | 15 | 1.0 | 1.0 | 0.00 | 0.00 | 0.00 | 52 | 1019.6 |
| 20260906080946 | 71 | 117 | 1.0 | 1.0 | 0.00 | 0.00 | 0.00 | 51 | 1019.7 |
| 20260906080443 | 71 | 81 | 0.0 | 2.0 | 0.00 | 0.00 | 0.00 | 50 | 1019.8 |
| 20260906075943 | 71 | 331 | 0.0 | 2.0 | 0.00 | 0.00 | 0.00 | 49 | 1019.7 |
| 20260906075438 | 71 | 0 | 0.0 | 1.0 | 0.00 | 0.00 | 0.00 | 47 | 1019.8 |
| 20260906074933 | 71 | 165 | 0.0 | 2.0 | 0.00 | 0.00 | 0.00 | 47 | 1019.4 |
| 20260906074432 | 71 | 166 | 0.0 | 2.0 | 0.00 | 0.00 | 0.00 | 47 | 1019.4 |
| 20260906073931 | 72 | 188 | 0.0 | 0.0 | 0.00 | 0.00 | 0.00 | 47 | 1019.3 |
| 20260906073426 | 72 | 285 | 0.0 | 3.0 | 0.00 | 0.00 | 0.00 | 45 | 1019.1 |
| 20260906072923 | 73 | 346 | 0.0 | 2.0 | 0.00 | 0.00 | 0.00 | 45 | 1019.1 |
| 20260906072418 | 72 | 279 | 0.0 | 3.0 | 0.00 | 0.00 | 0.00 | 45 | 1019.0 |
| 20260906071914 | 72 | 18 | 2.0 | 2.0 | 0.00 | 0.00 | 0.00 | 44 | 1018.8 |
| 20260906071409 | 73 | 346 | 2.0 | 3.0 | 0.00 | 0.00 | 0.00 | 43 | 1019.1 |
| 20260906070905 | 74 | 279 | 0.0 | 5.0 | 0.00 | 0.00 | 0.00 | 42 | 1018.8 |
| 20260906070401 | 75 | 270 | 2.0 | 4.0 | 0.00 | 0.00 | 0.00 | 42 | 1018.8 |
| 20260906065856 | 75 | 242 | 4.0 | 5.0 | 0.00 | 0.00 | 0.00 | 41 | 1018.8 |
| 20260906065350 | 75 | 261 | 3.0 | 7.0 | 0.00 | 0.00 | 0.00 | 41 | 1018.8 |
| 20260906064846 | 75 | 238 | 5.0 | 8.0 | 0.00 | 0.00 | 0.00 | 40 | 1018.8 |
| 20260906064343 | 75 | 232 | 6.0 | 12.0 | 0.00 | 0.00 | 0.00 | 40 | 1018.8 |
| 20260906063842 | 75 | 261 | 2.0 | 5.0 | 0.00 | 0.00 | 0.00 | 40 | 1018.7 |
| 20260906063338 | 75 | 225 | 4.0 | 7.0 | 0.00 | 0.00 | 0.00 | 40 | 1018.8 |
| 20260906062833 | 76 | 274 | 5.0 | 10.0 | 0.00 | 0.00 | 0.00 | 39 | 1019.1 |
| 20260906062332 | 76 | 297 | 5.0 | 7.0 | 0.00 | 0.00 | 0.00 | 39 | 1018.8 |
| 20260906061827 | 76 | 228 | 4.0 | 8.0 | 0.00 | 0.00 | 0.00 | 39 | 1019.3 |
| 20260906061324 | 76 | 212 | 2.0 | 8.0 | 0.00 | 0.00 | 0.00 | 39 | 1019.4 |
| 20260906060818 | 76 | 241 | 5.0 | 9.0 | 0.00 | 0.00 | 0.00 | 39 | 1019.4 |
| 20260906060316 | 76 | 216 | 3.0 | 10.0 | 0.00 | 0.00 | 0.00 | 39 | 1019.6 |
| 20260906055812 | 76 | 246 | 4.0 | 6.0 | 0.00 | 0.00 | 0.00 | 39 | 1019.5 |
| 20260906055307 | 76 | 245 | 2.0 | 6.0 | 0.00 | 0.00 | 0.00 | 39 | 1019.4 |
| 20260906054802 | 76 | 281 | 3.0 | 6.0 | 0.00 | 0.00 | 0.00 | 39 | 1019.3 |
| 20260906054258 | 76 | 268 | 5.0 | 7.0 | 0.00 | 0.00 | 0.00 | 39 | 1019.4 |
| 20260906053754 | 76 | 264 | 6.0 | 9.0 | 0.00 | 0.00 | 0.00 | 38 | 1019.3 |
| 20260906053249 | 76 | 319 | 2.0 | 9.0 | 0.00 | 0.00 | 0.00 | 38 | 1019.1 |
| 20260906052744 | 76 | 315 | 0.0 | 9.0 | 0.00 | 0.00 | 0.00 | 39 | 1019.1 |
| 20260906052240 | 76 | 272 | 5.0 | 10.0 | 0.00 | 0.00 | 0.00 | 40 | 1019.4 |
| 20260906051738 | 76 | 283 | 5.0 | 6.0 | 0.00 | 0.00 | 0.00 | 42 | 1019.4 |
| 20260906051237 | 76 | 257 | 1.0 | 3.0 | 0.00 | 0.00 | 0.00 | 41 | 1019.7 |
| 20260906050732 | 76 | 296 | 3.0 | 4.0 | 0.00 | 0.00 | 0.00 | 40 | 1019.7 |
| 20260906050227 | 76 | 266 | 3.0 | 3.0 | 0.00 | 0.00 | 0.00 | 39 | 1019.6 |
| 20260906045726 | 76 | 307 | 2.0 | 4.0 | 0.00 | 0.00 | 0.00 | 40 | 1019.6 |
| 20260906045221 | 76 | 279 | 0.0 | 4.0 | 0.00 | 0.00 | 0.00 | 40 | 1019.6 |
| 20260906044716 | 76 | 300 | 2.0 | 3.0 | 0.00 | 0.00 | 0.00 | 39 | 1019.8 |
| 20260906044212 | 75 | 180 | 0.0 | 0.0 | 0.00 | 0.00 | 0.00 | 39 | 1019.7 |
| 20260906043708 | 76 | 170 | 0.0 | 2.0 | 0.00 | 0.00 | 0.00 | 39 | 1019.8 |
| 20260906043204 | 77 | 162 | 1.0 | 2.0 | 0.00 | 0.00 | 0.00 | 39 | 1019.7 |
| 20260906042703 | 76 | 15 | 0.0 | 3.0 | 0.00 | 0.00 | 0.00 | 36 | 1019.7 |
| 20260906042203 | 77 | 125 | 2.0 | 4.0 | 0.00 | 0.00 | 0.00 | 36 | 1020.0 |
| 20260906041658 | 76 | 127 | 3.0 | 4.0 | 0.00 | 0.00 | 0.00 | 36 | 1020.0 |
| 20260906041153 | 76 | 23 | 0.0 | 2.0 | 0.00 | 0.00 | 0.00 | 37 | 1019.5 |
| 20260906040649 | 76 | 139 | 6.0 | 7.0 | 0.00 | 0.00 | 0.00 | 36 | 1019.4 |
| 20260906040144 | 76 | 19 | 3.0 | 4.0 | 0.00 | 0.00 | 0.00 | 36 | 1018.9 |
| 20260906035645 | 76 | 342 | 1.0 | 3.0 | 0.00 | 0.00 | 0.00 | 37 | 1018.8 |
| 20260906035140 | 76 | 15 | 3.0 | 3.0 | 0.00 | 0.00 | 0.00 | 36 | 1018.7 |
| 20260906034636 | 76 | 19 | 2.0 | 3.0 | 0.00 | 0.00 | 0.00 | 36 | 1019.0 |
| 20260906034135 | 76 | 19 | 2.0 | 2.0 | 0.00 | 0.00 | 0.00 | 36 | 1018.8 |
| 20260906033632 | 76 | 49 | 2.0 | 2.0 | 0.00 | 0.00 | 0.00 | 36 | 1018.9 |
| 20260906033132 | 76 | 6 | 0.0 | 2.0 | 0.00 | 0.00 | 0.00 | 36 | 1018.7 |
| 20260906032629 | 76 | 23 | 1.0 | 2.0 | 0.00 | 0.00 | 0.00 | 36 | 1018.5 |
| 20260906032128 | 77 | 41 | 2.0 | 2.0 | 0.00 | 0.00 | 0.00 | 35 | 1018.8 |
| 20260906031624 | 77 | 66 | 3.0 | 3.0 | 0.00 | 0.00 | 0.00 | 35 | 1018.7 |
| 20260906031119 | 77 | 337 | 1.0 | 1.0 | 0.00 | 0.00 | 0.00 | 35 | 1018.7 |
| 20260906030618 | 77 | 0 | 0.0 | 0.0 | 0.00 | 0.00 | 0.00 | 34 | 1018.0 |
| 20260906030114 | 77 | 352 | 0.0 | 1.0 | 0.00 | 0.00 | 0.00 | 34 | 1018.0 |
| 20260906025613 | 78 | 26 | 1.0 | 4.0 | 0.00 | 0.00 | 0.00 | 33 | 1018.0 |
| 20260906025112 | 78 | 74 | 0.0 | 2.0 | 0.00 | 0.00 | 0.00 | 33 | 1018.1 |
| 20260906024607 | 78 | 74 | 0.0 | 2.0 | 0.00 | 0.00 | 0.00 | 33 | 1018.1 |
| 20260906024101 | 79 | 32 | 2.0 | 3.0 | 0.00 | 0.00 | 0.00 | 32 | 1018.2 |
| 20260906023558 | 79 | 77 | 1.0 | 2.0 | 0.00 | 0.00 | 0.00 | 32 | 1018.1 |
| 20260906023057 | 80 | 98 | 0.0 | 0.0 | 0.00 | 0.00 | 0.00 | 32 | 1018.2 |
| 20260906022553 | 80 | 341 | 0.0 | 2.0 | 0.00 | 0.00 | 0.00 | 31 | 1018.2 |
| 20260906022048 | 81 | 270 | 0.0 | 2.0 | 0.00 | 0.00 | 0.00 | 31 | 1018.1 |
| 20260906021544 | 81 | 346 | 0.0 | 3.0 | 0.00 | 0.00 | 0.00 | 30 | 1018.1 |
| 20260906021043 | 81 | 294 | 0.0 | 3.0 | 0.00 | 0.00 | 0.00 | 30 | 1018.0 |
| 20260906020542 | 82 | 270 | 0.0 | 3.0 | 0.00 | 0.00 | 0.00 | 30 | 1017.6 |
| 20260906020042 | 82 | 319 | 2.0 | 3.0 | 0.00 | 0.00 | 0.00 | 29 | 1017.7 |
| 20260906015542 | 82 | 280 | 2.0 | 6.0 | 0.00 | 0.00 | 0.00 | 29 | 1017.5 |
| 20260906015041 | 82 | 315 | 2.0 | 3.0 | 0.00 | 0.00 | 0.00 | 29 | 1017.4 |
| 20260906014536 | 83 | 307 | 3.0 | 8.0 | 0.00 | 0.00 | 0.00 | 28 | 1017.3 |
| 20260906014032 | 84 | 0 | 2.0 | 6.0 | 0.00 | 0.00 | 0.00 | 28 | 1017.4 |
| 20260906013527 | 84 | 312 | 4.0 | 9.0 | 0.00 | 0.00 | 0.00 | 27 | 1017.0 |
| 20260906013023 | 84 | 328 | 2.0 | 7.0 | 0.00 | 0.00 | 0.00 | 27 | 1017.1 |
| 20260906012518 | 85 | 280 | 5.0 | 5.0 | 0.00 | 0.00 | 0.00 | 26 | 1017.0 |
| 20260906012017 | 84 | 0 | 0.0 | 1.0 | 0.00 | 0.00 | 0.00 | 26 | 1017.3 |
| 20260906011514 | 85 | 331 | 0.0 | 1.0 | 0.00 | 0.00 | 0.00 | 26 | 1016.7 |
| 20260906011013 | 85 | 312 | 0.0 | 3.0 | 0.00 | 0.00 | 0.00 | 26 | 1016.9 |
| 20260906010508 | 86 | 0 | 0.0 | 1.0 | 0.00 | 0.00 | 0.00 | 26 | 1016.9 |
| 20260906010004 | 86 | 352 | 0.0 | 2.0 | 0.00 | 0.00 | 0.00 | 25 | 1016.8 |
| 20260906005503 | 87 | 307 | 3.0 | 3.0 | 0.00 | 0.00 | 0.00 | 24 | 1016.9 |
| 20260906005002 | 87 | 356 | 0.0 | 4.0 | 0.00 | 0.00 | 0.00 | 24 | 1017.0 |
| 20260906004457 | 87 | 348 | 0.0 | 5.0 | 0.00 | 0.00 | 0.00 | 24 | 1017.0 |
| 20260906003952 | 87 | 315 | 2.0 | 3.0 | 0.00 | 0.00 | 0.00 | 24 | 1017.0 |
| 20260906003447 | 88 | 15 | 0.0 | 3.0 | 0.00 | 0.00 | 0.00 | 24 | 1017.1 |
| 20260906002943 | 89 | 323 | 2.0 | 3.0 | 0.00 | 0.00 | 0.00 | 22 | 1017.0 |
| 20260906002442 | 90 | 0 | 0.0 | 3.0 | 0.00 | 0.00 | 0.00 | 22 | 1016.9 |
| 20260906001938 | 92 | 301 | 4.0 | 5.0 | 0.00 | 0.00 | 0.00 | 20 | 1016.9 |
| 20260906001434 | 93 | 0 | 2.0 | 3.0 | 0.00 | 0.00 | 0.00 | 21 | 1016.9 |
| 20260906000928 | 93 | 320 | 0.0 | 2.0 | 0.00 | 0.00 | 0.00 | 21 | 1016.9 |
| 20260906000425 | 93 | 11 | 0.0 | 2.0 | 0.00 | 0.00 | 0.00 | 21 | 1016.8 |
| 20260905235919 | 93 | 352 | 0.0 | 2.0 | 0.00 | 0.00 | 0.00 | 21 | 1016.9 |
| 20260905235418 | 93 | 344 | 2.0 | 3.0 | 0.00 | 0.00 | 0.00 | 21 | 1016.7 |
| 20260905234913 | 93 | 342 | 2.0 | 4.0 | 0.00 | 0.00 | 0.00 | 21 | 1016.8 |
| 20260905234409 | 92 | 26 | 3.0 | 3.0 | 0.00 | 0.00 | 0.00 | 20 | 1016.9 |
| 20260905233903 | 93 | 326 | 0.0 | 3.0 | 0.00 | 0.00 | 0.00 | 20 | 1016.7 |
| 20260905233358 | 93 | 315 | 4.0 | 6.0 | 0.00 | 0.00 | 0.00 | 21 | 1016.7 |
| 20260905232857 | 93 | 279 | 2.0 | 4.0 | 0.00 | 0.00 | 0.00 | 20 | 1016.8 |
| 20260905232354 | 93 | 0 | 2.0 | 3.0 | 0.00 | 0.00 | 0.00 | 21 | 1016.8 |
| 20260905231849 | 93 | 310 | 3.0 | 4.0 | 0.00 | 0.00 | 0.00 | 20 | 1016.7 |
| 20260905231350 | 94 | 4 | 2.0 | 4.0 | 0.00 | 0.00 | 0.00 | 20 | 1016.7 |
| 20260905230847 | 92 | 282 | 0.0 | 4.0 | 0.00 | 0.00 | 0.00 | 20 | 1016.9 |
| 20260905230344 | 93 | 42 | 3.0 | 5.0 | 0.00 | 0.00 | 0.00 | 21 | 1016.7 |
| 20260905225843 | 93 | 286 | 1.0 | 6.0 | 0.00 | 0.00 | 0.00 | 21 | 1016.5 |
| 20260905225339 | 93 | 0 | 2.0 | 5.0 | 0.00 | 0.00 | 0.00 | 21 | 1016.7 |
| 20260905224834 | 92 | 180 | 1.0 | 2.0 | 0.00 | 0.00 | 0.00 | 21 | 1016.8 |
| 20260905224329 | 91 | 350 | 2.0 | 3.0 | 0.00 | 0.00 | 0.00 | 22 | 1016.8 |
| 20260905223824 | 93 | 68 | 2.0 | 3.0 | 0.00 | 0.00 | 0.00 | 21 | 1016.4 |
| 20260905223322 | 92 | 294 | 0.0 | 3.0 | 0.00 | 0.00 | 0.00 | 22 | 1016.5 |
| 20260905222817 | 91 | 297 | 0.0 | 6.0 | 0.00 | 0.00 | 0.00 | 22 | 1016.7 |
| 20260905222315 | 92 | 345 | 0.0 | 5.0 | 0.00 | 0.00 | 0.00 | 22 | 1016.5 |
| 20260905221812 | 92 | 285 | 4.0 | 7.0 | 0.00 | 0.00 | 0.00 | 21 | 1016.8 |
| 20260905221309 | 93 | 274 | 5.0 | 5.0 | 0.00 | 0.00 | 0.00 | 21 | 1016.8 |
| 20260905220803 | 90 | 345 | 0.0 | 4.0 | 0.00 | 0.00 | 0.00 | 23 | 1016.8 |
| 20260905220300 | 90 | 303 | 2.0 | 5.0 | 0.00 | 0.00 | 0.00 | 22 | 1017.0 |
| 20260905215759 | 89 | 296 | 6.0 | 6.0 | 0.00 | 0.00 | 0.00 | 22 | 1016.8 |
| 20260905215255 | 90 | 337 | 2.0 | 5.0 | 0.00 | 0.00 | 0.00 | 22 | 1017.1 |
| 20260905214750 | 90 | 9 | 2.0 | 6.0 | 0.00 | 0.00 | 0.00 | 23 | 1017.0 |
| 20260905214246 | 91 | 344 | 2.0 | 3.0 | 0.00 | 0.00 | 0.00 | 22 | 1017.3 |
| 20260905213741 | 91 | 209 | 1.0 | 4.0 | 0.00 | 0.00 | 0.00 | 21 | 1017.1 |